sensor_id;sensor_type;location;lat;lon;timestamp;P1;durP1;ratioP1;P2;durP2;ratioP2
37843;SDS011;63793;57.632;18.292;2023-05-10T00:02:18;10.65;;;8.68;;
37843;SDS011;63793;57.632;18.292;2023-05-10T00:04:45;11.70;;;7.47;;
37843;SDS011;63793;57.632;18.292;2023-05-10T00:07:12;9.85;;;8.70;;
37843;SDS011;63793;57.632;18.292;2023-05-10T00:09:39;13.20;;;7.95;;
37843;SDS011;63793;57.632;18.292;2023-05-10T00:12:06;12.77;;;8.10;;
37843;SDS011;63793;57.632;18.292;2023-05-10T00:14:33;10.75;;;7.97;;
37843;SDS011;63793;57.632;18.292;2023-05-10T00:17:00;9.63;;;7.93;;
37843;SDS011;63793;57.632;18.292;2023-05-10T00:19:27;10.00;;;7.55;;
37843;SDS011;63793;57.632;18.292;2023-05-10T00:21:53;12.48;;;6.65;;
37843;SDS011;63793;57.632;18.292;2023-05-10T00:24:20;8.73;;;7.82;;
37843;SDS011;63793;57.632;18.292;2023-05-10T00:26:47;10.75;;;8.45;;
37843;SDS011;63793;57.632;18.292;2023-05-10T00:29:14;9.73;;;7.45;;
37843;SDS011;63793;57.632;18.292;2023-05-10T00:31:41;7.78;;;7.00;;
37843;SDS011;63793;57.632;18.292;2023-05-10T00:34:08;9.13;;;8.23;;
37843;SDS011;63793;57.632;18.292;2023-05-10T00:36:35;12.68;;;7.65;;
37843;SDS011;63793;57.632;18.292;2023-05-10T00:39:02;8.02;;;7.22;;
37843;SDS011;63793;57.632;18.292;2023-05-10T00:41:29;9.05;;;7.30;;
37843;SDS011;63793;57.632;18.292;2023-05-10T00:44:00;8.02;;;7.32;;
37843;SDS011;63793;57.632;18.292;2023-05-10T00:46:28;9.30;;;8.35;;
37843;SDS011;63793;57.632;18.292;2023-05-10T00:48:55;8.88;;;7.05;;
37843;SDS011;63793;57.632;18.292;2023-05-10T00:51:22;8.68;;;7.75;;
37843;SDS011;63793;57.632;18.292;2023-05-10T00:53:49;10.50;;;7.22;;
37843;SDS011;63793;57.632;18.292;2023-05-10T00:56:18;7.32;;;6.60;;
37843;SDS011;63793;57.632;18.292;2023-05-10T00:58:46;9.38;;;7.55;;
37843;SDS011;63793;57.632;18.292;2023-05-10T01:01:13;8.20;;;7.40;;
37843;SDS011;63793;57.632;18.292;2023-05-10T01:03:40;8.95;;;7.22;;
37843;SDS011;63793;57.632;18.292;2023-05-10T01:06:07;10.73;;;8.23;;
37843;SDS011;63793;57.632;18.292;2023-05-10T01:08:36;9.00;;;7.65;;
37843;SDS011;63793;57.632;18.292;2023-05-10T01:11:03;11.80;;;7.43;;
37843;SDS011;63793;57.632;18.292;2023-05-10T01:13:33;8.40;;;7.60;;
37843;SDS011;63793;57.632;18.292;2023-05-10T01:16:02;8.05;;;7.25;;
37843;SDS011;63793;57.632;18.292;2023-05-10T01:18:34;9.23;;;8.25;;
37843;SDS011;63793;57.632;18.292;2023-05-10T01:30:27;13.07;;;8.45;;
37843;SDS011;63793;57.632;18.292;2023-05-10T01:35:55;11.80;;;7.72;;
37843;SDS011;63793;57.632;18.292;2023-05-10T01:39:01;8.27;;;6.95;;
37843;SDS011;63793;57.632;18.292;2023-05-10T01:41:51;8.48;;;7.43;;
37843;SDS011;63793;57.632;18.292;2023-05-10T01:47:07;11.23;;;7.63;;
37843;SDS011;63793;57.632;18.292;2023-05-10T01:49:45;11.50;;;8.50;;
37843;SDS011;63793;57.632;18.292;2023-05-10T01:52:18;9.43;;;7.95;;
37843;SDS011;63793;57.632;18.292;2023-05-10T01:54:49;7.80;;;7.07;;
37843;SDS011;63793;57.632;18.292;2023-05-10T01:57:22;7.85;;;7.10;;
37843;SDS011;63793;57.632;18.292;2023-05-10T01:59:52;8.98;;;6.97;;
37843;SDS011;63793;57.632;18.292;2023-05-10T02:02:21;9.10;;;8.18;;
37843;SDS011;63793;57.632;18.292;2023-05-10T02:04:50;11.07;;;7.75;;
37843;SDS011;63793;57.632;18.292;2023-05-10T02:07:17;9.43;;;7.85;;
37843;SDS011;63793;57.632;18.292;2023-05-10T02:09:45;8.00;;;7.03;;
37843;SDS011;63793;57.632;18.292;2023-05-10T02:12:14;11.82;;;7.43;;
37843;SDS011;63793;57.632;18.292;2023-05-10T02:14:42;8.10;;;6.75;;
37843;SDS011;63793;57.632;18.292;2023-05-10T02:17:10;7.95;;;5.68;;
37843;SDS011;63793;57.632;18.292;2023-05-10T02:19:39;7.38;;;6.13;;
37843;SDS011;63793;57.632;18.292;2023-05-10T02:22:08;8.00;;;7.05;;
37843;SDS011;63793;57.632;18.292;2023-05-10T02:24:36;12.60;;;8.20;;
37843;SDS011;63793;57.632;18.292;2023-05-10T02:27:04;12.25;;;7.80;;
37843;SDS011;63793;57.632;18.292;2023-05-10T02:29:33;8.73;;;7.63;;
37843;SDS011;63793;57.632;18.292;2023-05-10T02:32:02;9.93;;;7.57;;
37843;SDS011;63793;57.632;18.292;2023-05-10T02:34:29;11.45;;;6.28;;
37843;SDS011;63793;57.632;18.292;2023-05-10T02:36:58;8.05;;;7.25;;
37843;SDS011;63793;57.632;18.292;2023-05-10T02:39:25;8.20;;;6.85;;
37843;SDS011;63793;57.632;18.292;2023-05-10T02:41:55;12.65;;;7.53;;
37843;SDS011;63793;57.632;18.292;2023-05-10T02:44:23;7.82;;;7.07;;
37843;SDS011;63793;57.632;18.292;2023-05-10T02:46:53;8.73;;;6.78;;
37843;SDS011;63793;57.632;18.292;2023-05-10T02:49:22;9.70;;;6.95;;
37843;SDS011;63793;57.632;18.292;2023-05-10T02:51:51;9.40;;;6.72;;
37843;SDS011;63793;57.632;18.292;2023-05-10T02:54:27;9.50;;;7.25;;
37843;SDS011;63793;57.632;18.292;2023-05-10T02:56:57;11.15;;;7.30;;
37843;SDS011;63793;57.632;18.292;2023-05-10T02:59:26;11.45;;;7.50;;
37843;SDS011;63793;57.632;18.292;2023-05-10T03:01:53;8.98;;;6.68;;
37843;SDS011;63793;57.632;18.292;2023-05-10T03:04:21;8.70;;;7.38;;
37843;SDS011;63793;57.632;18.292;2023-05-10T03:06:48;7.53;;;6.55;;
37843;SDS011;63793;57.632;18.292;2023-05-10T03:09:15;8.95;;;6.53;;
37843;SDS011;63793;57.632;18.292;2023-05-10T03:14:27;10.05;;;6.43;;
37843;SDS011;63793;57.632;18.292;2023-05-10T03:19:32;13.82;;;8.27;;
37843;SDS011;63793;57.632;18.292;2023-05-10T03:22:32;8.30;;;7.18;;
37843;SDS011;63793;57.632;18.292;2023-05-10T03:25:05;12.75;;;7.88;;
37843;SDS011;63793;57.632;18.292;2023-05-10T03:27:35;8.25;;;7.28;;
37843;SDS011;63793;57.632;18.292;2023-05-10T03:30:04;10.38;;;7.35;;
37843;SDS011;63793;57.632;18.292;2023-05-10T03:32:33;10.00;;;9.00;;
37843;SDS011;63793;57.632;18.292;2023-05-10T03:35:05;9.68;;;7.35;;
37843;SDS011;63793;57.632;18.292;2023-05-10T03:37:36;14.02;;;7.85;;
37843;SDS011;63793;57.632;18.292;2023-05-10T03:40:04;11.30;;;6.97;;
37843;SDS011;63793;57.632;18.292;2023-05-10T03:42:33;13.25;;;7.68;;
37843;SDS011;63793;57.632;18.292;2023-05-10T03:45:00;11.52;;;7.63;;
37843;SDS011;63793;57.632;18.292;2023-05-10T03:47:27;11.93;;;7.75;;
37843;SDS011;63793;57.632;18.292;2023-05-10T03:49:56;10.35;;;7.18;;
37843;SDS011;63793;57.632;18.292;2023-05-10T03:52:23;7.20;;;6.45;;
37843;SDS011;63793;57.632;18.292;2023-05-10T03:54:50;8.70;;;7.13;;
37843;SDS011;63793;57.632;18.292;2023-05-10T03:57:17;14.02;;;7.15;;
37843;SDS011;63793;57.632;18.292;2023-05-10T03:59:44;9.52;;;7.32;;
37843;SDS011;63793;57.632;18.292;2023-05-10T04:02:11;8.10;;;6.80;;
37843;SDS011;63793;57.632;18.292;2023-05-10T04:04:38;10.10;;;7.78;;
37843;SDS011;63793;57.632;18.292;2023-05-10T04:07:05;10.77;;;7.07;;
37843;SDS011;63793;57.632;18.292;2023-05-10T04:09:32;11.07;;;7.15;;
37843;SDS011;63793;57.632;18.292;2023-05-10T04:11:59;9.15;;;7.47;;
37843;SDS011;63793;57.632;18.292;2023-05-10T04:14:28;8.43;;;7.68;;
37843;SDS011;63793;57.632;18.292;2023-05-10T04:16:55;10.68;;;6.88;;
37843;SDS011;63793;57.632;18.292;2023-05-10T04:19:22;14.85;;;7.35;;
37843;SDS011;63793;57.632;18.292;2023-05-10T04:21:49;11.63;;;7.13;;
37843;SDS011;63793;57.632;18.292;2023-05-10T04:24:16;9.07;;;6.60;;
37843;SDS011;63793;57.632;18.292;2023-05-10T04:26:43;7.70;;;6.38;;
37843;SDS011;63793;57.632;18.292;2023-05-10T04:29:10;11.93;;;6.88;;
37843;SDS011;63793;57.632;18.292;2023-05-10T04:31:36;10.85;;;7.32;;
37843;SDS011;63793;57.632;18.292;2023-05-10T04:34:04;13.05;;;6.80;;
37843;SDS011;63793;57.632;18.292;2023-05-10T04:36:31;8.05;;;6.80;;
37843;SDS011;63793;57.632;18.292;2023-05-10T04:39:00;11.52;;;7.15;;
37843;SDS011;63793;57.632;18.292;2023-05-10T04:41:26;8.90;;;6.07;;
37843;SDS011;63793;57.632;18.292;2023-05-10T04:43:53;6.78;;;6.05;;
37843;SDS011;63793;57.632;18.292;2023-05-10T04:46:20;7.63;;;5.72;;
37843;SDS011;63793;57.632;18.292;2023-05-10T04:48:47;8.85;;;5.95;;
37843;SDS011;63793;57.632;18.292;2023-05-10T04:51:14;7.97;;;6.10;;
37843;SDS011;63793;57.632;18.292;2023-05-10T04:53:41;6.50;;;5.32;;
37843;SDS011;63793;57.632;18.292;2023-05-10T04:56:19;7.68;;;6.75;;
37843;SDS011;63793;57.632;18.292;2023-05-10T04:58:46;10.95;;;6.03;;
37843;SDS011;63793;57.632;18.292;2023-05-10T05:01:13;11.60;;;6.30;;
37843;SDS011;63793;57.632;18.292;2023-05-10T05:03:40;13.60;;;5.55;;
37843;SDS011;63793;57.632;18.292;2023-05-10T05:06:07;11.15;;;5.60;;
37843;SDS011;63793;57.632;18.292;2023-05-10T05:08:34;9.48;;;5.95;;
37843;SDS011;63793;57.632;18.292;2023-05-10T05:11:00;7.68;;;5.55;;
37843;SDS011;63793;57.632;18.292;2023-05-10T05:13:27;7.85;;;5.90;;
37843;SDS011;63793;57.632;18.292;2023-05-10T05:15:54;9.93;;;6.38;;
37843;SDS011;63793;57.632;18.292;2023-05-10T05:18:21;5.97;;;4.97;;
37843;SDS011;63793;57.632;18.292;2023-05-10T05:20:49;6.43;;;4.80;;
37843;SDS011;63793;57.632;18.292;2023-05-10T05:23:15;7.22;;;4.78;;
37843;SDS011;63793;57.632;18.292;2023-05-10T05:25:42;10.07;;;5.30;;
37843;SDS011;63793;57.632;18.292;2023-05-10T05:28:09;7.68;;;6.28;;
37843;SDS011;63793;57.632;18.292;2023-05-10T05:30:36;7.85;;;4.28;;
37843;SDS011;63793;57.632;18.292;2023-05-10T05:33:03;9.90;;;5.13;;
37843;SDS011;63793;57.632;18.292;2023-05-10T05:35:30;13.57;;;6.03;;
37843;SDS011;63793;57.632;18.292;2023-05-10T05:37:57;10.88;;;5.47;;
37843;SDS011;63793;57.632;18.292;2023-05-10T05:40:24;10.43;;;4.85;;
37843;SDS011;63793;57.632;18.292;2023-05-10T05:42:50;7.18;;;4.70;;
37843;SDS011;63793;57.632;18.292;2023-05-10T05:45:17;10.48;;;5.57;;
37843;SDS011;63793;57.632;18.292;2023-05-10T05:47:45;12.32;;;3.70;;
37843;SDS011;63793;57.632;18.292;2023-05-10T05:50:12;8.02;;;4.75;;
37843;SDS011;63793;57.632;18.292;2023-05-10T05:52:39;7.60;;;4.57;;
37843;SDS011;63793;57.632;18.292;2023-05-10T05:55:06;5.20;;;3.97;;
37843;SDS011;63793;57.632;18.292;2023-05-10T05:57:33;7.53;;;3.80;;
37843;SDS011;63793;57.632;18.292;2023-05-10T06:00:00;4.00;;;3.33;;
37843;SDS011;63793;57.632;18.292;2023-05-10T06:02:27;7.00;;;4.00;;
37843;SDS011;63793;57.632;18.292;2023-05-10T06:04:54;9.65;;;4.18;;
37843;SDS011;63793;57.632;18.292;2023-05-10T06:07:20;5.07;;;3.38;;
37843;SDS011;63793;57.632;18.292;2023-05-10T06:09:47;9.85;;;4.45;;
37843;SDS011;63793;57.632;18.292;2023-05-10T06:12:14;6.45;;;3.33;;
37843;SDS011;63793;57.632;18.292;2023-05-10T06:14:41;7.28;;;4.13;;
37843;SDS011;63793;57.632;18.292;2023-05-10T06:17:08;4.13;;;3.30;;
37843;SDS011;63793;57.632;18.292;2023-05-10T06:19:35;3.85;;;3.45;;
37843;SDS011;63793;57.632;18.292;2023-05-10T06:22:03;5.78;;;3.92;;
37843;SDS011;63793;57.632;18.292;2023-05-10T06:24:29;5.07;;;3.70;;
37843;SDS011;63793;57.632;18.292;2023-05-10T06:26:56;4.00;;;3.17;;
37843;SDS011;63793;57.632;18.292;2023-05-10T06:29:26;4.13;;;3.07;;
37843;SDS011;63793;57.632;18.292;2023-05-10T06:31:53;3.13;;;2.58;;
37843;SDS011;63793;57.632;18.292;2023-05-10T06:34:20;3.50;;;3.13;;
37843;SDS011;63793;57.632;18.292;2023-05-10T06:36:47;3.85;;;3.15;;
37843;SDS011;63793;57.632;18.292;2023-05-10T06:39:14;4.57;;;3.42;;
37843;SDS011;63793;57.632;18.292;2023-05-10T06:41:40;4.55;;;2.70;;
37843;SDS011;63793;57.632;18.292;2023-05-10T06:44:07;6.25;;;3.45;;
37843;SDS011;63793;57.632;18.292;2023-05-10T06:46:34;5.85;;;4.15;;
37843;SDS011;63793;57.632;18.292;2023-05-10T06:49:01;6.18;;;3.95;;
37843;SDS011;63793;57.632;18.292;2023-05-10T06:51:28;3.55;;;3.25;;
37843;SDS011;63793;57.632;18.292;2023-05-10T06:53:55;3.97;;;2.95;;
37843;SDS011;63793;57.632;18.292;2023-05-10T06:56:22;3.78;;;3.00;;
37843;SDS011;63793;57.632;18.292;2023-05-10T06:58:48;4.03;;;3.70;;
37843;SDS011;63793;57.632;18.292;2023-05-10T07:01:15;4.82;;;2.92;;
37843;SDS011;63793;57.632;18.292;2023-05-10T07:03:42;6.97;;;3.40;;
37843;SDS011;63793;57.632;18.292;2023-05-10T07:06:09;4.10;;;3.15;;
37843;SDS011;63793;57.632;18.292;2023-05-10T07:08:50;3.20;;;2.70;;
37843;SDS011;63793;57.632;18.292;2023-05-10T07:11:17;6.32;;;3.20;;
37843;SDS011;63793;57.632;18.292;2023-05-10T07:13:44;4.03;;;3.25;;
37843;SDS011;63793;57.632;18.292;2023-05-10T07:16:12;2.90;;;2.60;;
37843;SDS011;63793;57.632;18.292;2023-05-10T07:18:39;3.15;;;2.92;;
37843;SDS011;63793;57.632;18.292;2023-05-10T07:21:06;5.30;;;2.80;;
37843;SDS011;63793;57.632;18.292;2023-05-10T07:23:33;6.05;;;2.83;;
37843;SDS011;63793;57.632;18.292;2023-05-10T07:26:00;4.22;;;3.45;;
37843;SDS011;63793;57.632;18.292;2023-05-10T07:28:28;4.05;;;3.10;;
37843;SDS011;63793;57.632;18.292;2023-05-10T07:30:55;7.78;;;3.45;;
37843;SDS011;63793;57.632;18.292;2023-05-10T07:33:22;4.05;;;2.92;;
37843;SDS011;63793;57.632;18.292;2023-05-10T07:35:49;11.50;;;2.97;;
37843;SDS011;63793;57.632;18.292;2023-05-10T07:38:16;7.00;;;2.67;;
37843;SDS011;63793;57.632;18.292;2023-05-10T07:40:43;4.90;;;3.40;;
37843;SDS011;63793;57.632;18.292;2023-05-10T07:43:10;2.85;;;2.55;;
37843;SDS011;63793;57.632;18.292;2023-05-10T07:45:37;4.68;;;2.38;;
37843;SDS011;63793;57.632;18.292;2023-05-10T07:48:04;6.18;;;2.72;;
37843;SDS011;63793;57.632;18.292;2023-05-10T07:50:31;5.20;;;2.88;;
37843;SDS011;63793;57.632;18.292;2023-05-10T07:52:58;8.00;;;3.47;;
37843;SDS011;63793;57.632;18.292;2023-05-10T07:55:24;3.78;;;2.78;;
37843;SDS011;63793;57.632;18.292;2023-05-10T07:57:52;5.07;;;3.85;;
37843;SDS011;63793;57.632;18.292;2023-05-10T08:00:19;3.83;;;2.95;;
37843;SDS011;63793;57.632;18.292;2023-05-10T08:02:46;3.25;;;2.50;;
37843;SDS011;63793;57.632;18.292;2023-05-10T08:05:14;8.20;;;2.85;;
37843;SDS011;63793;57.632;18.292;2023-05-10T08:07:41;4.13;;;2.60;;
37843;SDS011;63793;57.632;18.292;2023-05-10T08:10:09;4.85;;;2.83;;
37843;SDS011;63793;57.632;18.292;2023-05-10T08:12:37;3.40;;;2.72;;
37843;SDS011;63793;57.632;18.292;2023-05-10T08:15:04;4.25;;;3.72;;
37843;SDS011;63793;57.632;18.292;2023-05-10T08:17:32;2.90;;;2.55;;
37843;SDS011;63793;57.632;18.292;2023-05-10T08:19:59;5.00;;;2.50;;
37843;SDS011;63793;57.632;18.292;2023-05-10T08:22:26;9.23;;;2.95;;
37843;SDS011;63793;57.632;18.292;2023-05-10T08:24:53;5.00;;;2.63;;
37843;SDS011;63793;57.632;18.292;2023-05-10T08:27:20;5.22;;;3.13;;
37843;SDS011;63793;57.632;18.292;2023-05-10T08:29:47;8.68;;;4.35;;
37843;SDS011;63793;57.632;18.292;2023-05-10T08:32:16;4.45;;;3.00;;
37843;SDS011;63793;57.632;18.292;2023-05-10T08:34:43;9.18;;;3.72;;
37843;SDS011;63793;57.632;18.292;2023-05-10T08:37:10;2.70;;;2.47;;
37843;SDS011;63793;57.632;18.292;2023-05-10T08:39:39;5.38;;;2.15;;
37843;SDS011;63793;57.632;18.292;2023-05-10T08:42:06;5.85;;;3.15;;
37843;SDS011;63793;57.632;18.292;2023-05-10T08:44:35;4.05;;;2.65;;
37843;SDS011;63793;57.632;18.292;2023-05-10T08:47:04;8.82;;;2.75;;
37843;SDS011;63793;57.632;18.292;2023-05-10T08:49:35;5.45;;;2.40;;
37843;SDS011;63793;57.632;18.292;2023-05-10T08:52:03;5.68;;;2.67;;
37843;SDS011;63793;57.632;18.292;2023-05-10T08:54:32;4.72;;;2.05;;
37843;SDS011;63793;57.632;18.292;2023-05-10T08:56:59;4.13;;;2.25;;
37843;SDS011;63793;57.632;18.292;2023-05-10T08:59:27;4.05;;;2.88;;
37843;SDS011;63793;57.632;18.292;2023-05-10T09:01:53;3.38;;;2.25;;
37843;SDS011;63793;57.632;18.292;2023-05-10T09:04:24;3.80;;;3.50;;
37843;SDS011;63793;57.632;18.292;2023-05-10T09:06:51;2.70;;;2.40;;
37843;SDS011;63793;57.632;18.292;2023-05-10T09:09:18;9.35;;;3.10;;
37843;SDS011;63793;57.632;18.292;2023-05-10T09:11:46;6.95;;;3.72;;
37843;SDS011;63793;57.632;18.292;2023-05-10T09:14:13;6.40;;;2.42;;
37843;SDS011;63793;57.632;18.292;2023-05-10T09:16:41;3.38;;;2.30;;
37843;SDS011;63793;57.632;18.292;2023-05-10T09:19:09;3.90;;;2.38;;
37843;SDS011;63793;57.632;18.292;2023-05-10T09:21:36;7.70;;;2.80;;
37843;SDS011;63793;57.632;18.292;2023-05-10T09:24:06;13.10;;;3.25;;
37843;SDS011;63793;57.632;18.292;2023-05-10T09:26:34;4.75;;;3.03;;
37843;SDS011;63793;57.632;18.292;2023-05-10T09:29:02;4.15;;;2.90;;
37843;SDS011;63793;57.632;18.292;2023-05-10T09:31:46;7.05;;;4.22;;
37843;SDS011;63793;57.632;18.292;2023-05-10T09:34:17;4.22;;;2.78;;
37843;SDS011;63793;57.632;18.292;2023-05-10T09:36:56;2.95;;;2.58;;
37843;SDS011;63793;57.632;18.292;2023-05-10T09:39:34;10.80;;;2.80;;
37843;SDS011;63793;57.632;18.292;2023-05-10T09:42:05;3.35;;;2.13;;
37843;SDS011;63793;57.632;18.292;2023-05-10T09:44:33;8.95;;;2.63;;
37843;SDS011;63793;57.632;18.292;2023-05-10T09:47:01;5.13;;;3.13;;
37843;SDS011;63793;57.632;18.292;2023-05-10T09:49:28;3.50;;;2.63;;
37843;SDS011;63793;57.632;18.292;2023-05-10T09:52:05;3.33;;;2.15;;
37843;SDS011;63793;57.632;18.292;2023-05-10T09:54:33;5.40;;;2.55;;
37843;SDS011;63793;57.632;18.292;2023-05-10T09:57:01;5.03;;;2.70;;
37843;SDS011;63793;57.632;18.292;2023-05-10T09:59:28;4.03;;;1.90;;
37843;SDS011;63793;57.632;18.292;2023-05-10T10:01:56;3.92;;;1.98;;
37843;SDS011;63793;57.632;18.292;2023-05-10T10:04:24;4.03;;;1.92;;
37843;SDS011;63793;57.632;18.292;2023-05-10T10:07:02;3.42;;;2.28;;
37843;SDS011;63793;57.632;18.292;2023-05-10T10:09:30;4.30;;;2.60;;
37843;SDS011;63793;57.632;18.292;2023-05-10T10:12:02;5.70;;;2.25;;
37843;SDS011;63793;57.632;18.292;2023-05-10T10:14:30;2.58;;;2.20;;
37843;SDS011;63793;57.632;18.292;2023-05-10T10:16:56;2.28;;;2.13;;
37843;SDS011;63793;57.632;18.292;2023-05-10T10:19:34;2.75;;;2.47;;
37843;SDS011;63793;57.632;18.292;2023-05-10T10:22:02;5.75;;;2.15;;
37843;SDS011;63793;57.632;18.292;2023-05-10T10:24:29;7.45;;;2.95;;
37843;SDS011;63793;57.632;18.292;2023-05-10T10:26:57;8.02;;;3.20;;
37843;SDS011;63793;57.632;18.292;2023-05-10T10:29:52;3.95;;;3.55;;
37843;SDS011;63793;57.632;18.292;2023-05-10T10:32:55;2.70;;;2.10;;
37843;SDS011;63793;57.632;18.292;2023-05-10T10:35:38;2.97;;;2.15;;
37843;SDS011;63793;57.632;18.292;2023-05-10T10:38:07;6.53;;;2.58;;
37843;SDS011;63793;57.632;18.292;2023-05-10T10:40:34;2.80;;;2.50;;
37843;SDS011;63793;57.632;18.292;2023-05-10T10:46:09;6.43;;;2.33;;
37843;SDS011;63793;57.632;18.292;2023-05-10T10:48:38;3.55;;;2.25;;
37843;SDS011;63793;57.632;18.292;2023-05-10T10:51:17;2.75;;;1.70;;
37843;SDS011;63793;57.632;18.292;2023-05-10T10:53:44;4.15;;;2.25;;
37843;SDS011;63793;57.632;18.292;2023-05-10T10:56:14;5.38;;;2.47;;
37843;SDS011;63793;57.632;18.292;2023-05-10T10:58:42;4.25;;;2.38;;
37843;SDS011;63793;57.632;18.292;2023-05-10T11:01:18;4.28;;;2.63;;
37843;SDS011;63793;57.632;18.292;2023-05-10T11:04:16;3.63;;;2.90;;
37843;SDS011;63793;57.632;18.292;2023-05-10T11:06:41;3.50;;;2.55;;
37843;SDS011;63793;57.632;18.292;2023-05-10T11:09:09;8.57;;;2.88;;
37843;SDS011;63793;57.632;18.292;2023-05-10T11:11:53;4.50;;;2.10;;
37843;SDS011;63793;57.632;18.292;2023-05-10T11:14:24;4.78;;;2.10;;
37843;SDS011;63793;57.632;18.292;2023-05-10T11:16:52;8.57;;;2.50;;
37843;SDS011;63793;57.632;18.292;2023-05-10T11:19:19;7.57;;;2.40;;
37843;SDS011;63793;57.632;18.292;2023-05-10T11:24:49;9.27;;;2.75;;
37843;SDS011;63793;57.632;18.292;2023-05-10T11:27:24;3.72;;;2.15;;
37843;SDS011;63793;57.632;18.292;2023-05-10T11:29:51;2.85;;;2.65;;
37843;SDS011;63793;57.632;18.292;2023-05-10T11:32:19;4.10;;;1.90;;
37843;SDS011;63793;57.632;18.292;2023-05-10T11:34:46;4.05;;;2.03;;
37843;SDS011;63793;57.632;18.292;2023-05-10T11:37:14;2.53;;;2.33;;
37843;SDS011;63793;57.632;18.292;2023-05-10T11:39:45;3.22;;;2.42;;
37843;SDS011;63793;57.632;18.292;2023-05-10T11:42:13;3.83;;;2.17;;
37843;SDS011;63793;57.632;18.292;2023-05-10T11:44:40;4.88;;;2.67;;
37843;SDS011;63793;57.632;18.292;2023-05-10T11:47:08;4.25;;;2.50;;
37843;SDS011;63793;57.632;18.292;2023-05-10T11:49:35;3.05;;;2.10;;
37843;SDS011;63793;57.632;18.292;2023-05-10T11:52:08;35.38;;;4.88;;
37843;SDS011;63793;57.632;18.292;2023-05-10T11:54:35;6.03;;;2.78;;
37843;SDS011;63793;57.632;18.292;2023-05-10T11:57:02;5.32;;;2.00;;
37843;SDS011;63793;57.632;18.292;2023-05-10T11:59:29;1.80;;;1.70;;
37843;SDS011;63793;57.632;18.292;2023-05-10T12:01:56;3.88;;;2.30;;
37843;SDS011;63793;57.632;18.292;2023-05-10T12:04:24;3.45;;;2.30;;
37843;SDS011;63793;57.632;18.292;2023-05-10T12:06:52;2.65;;;2.10;;
37843;SDS011;63793;57.632;18.292;2023-05-10T12:09:18;4.40;;;2.83;;
37843;SDS011;63793;57.632;18.292;2023-05-10T12:12:05;2.22;;;1.88;;
37843;SDS011;63793;57.632;18.292;2023-05-10T12:14:33;4.28;;;2.30;;
37843;SDS011;63793;57.632;18.292;2023-05-10T12:17:01;7.65;;;2.50;;
37843;SDS011;63793;57.632;18.292;2023-05-10T12:19:29;3.75;;;2.47;;
37843;SDS011;63793;57.632;18.292;2023-05-10T12:22:06;4.20;;;2.80;;
37843;SDS011;63793;57.632;18.292;2023-05-10T12:24:34;4.78;;;2.42;;
37843;SDS011;63793;57.632;18.292;2023-05-10T12:27:05;4.07;;;2.17;;
37843;SDS011;63793;57.632;18.292;2023-05-10T12:29:51;3.30;;;2.60;;
37843;SDS011;63793;57.632;18.292;2023-05-10T12:32:21;2.10;;;1.90;;
37843;SDS011;63793;57.632;18.292;2023-05-10T12:35:07;4.05;;;2.65;;
37843;SDS011;63793;57.632;18.292;2023-05-10T12:37:35;4.38;;;2.22;;
37843;SDS011;63793;57.632;18.292;2023-05-10T12:40:05;3.70;;;2.30;;
37843;SDS011;63793;57.632;18.292;2023-05-10T12:42:34;4.25;;;2.35;;
37843;SDS011;63793;57.632;18.292;2023-05-10T12:45:02;2.80;;;2.33;;
37843;SDS011;63793;57.632;18.292;2023-05-10T12:47:30;8.80;;;2.28;;
37843;SDS011;63793;57.632;18.292;2023-05-10T12:49:57;6.03;;;2.45;;
37843;SDS011;63793;57.632;18.292;2023-05-10T12:52:26;3.90;;;2.13;;
37843;SDS011;63793;57.632;18.292;2023-05-10T12:54:54;3.33;;;2.92;;
37843;SDS011;63793;57.632;18.292;2023-05-10T12:57:21;2.53;;;2.08;;
37843;SDS011;63793;57.632;18.292;2023-05-10T12:59:48;3.80;;;2.25;;
37843;SDS011;63793;57.632;18.292;2023-05-10T13:02:15;3.40;;;2.17;;
37843;SDS011;63793;57.632;18.292;2023-05-10T13:04:44;3.30;;;1.98;;
37843;SDS011;63793;57.632;18.292;2023-05-10T13:07:16;3.67;;;1.88;;
37843;SDS011;63793;57.632;18.292;2023-05-10T13:09:43;3.83;;;2.53;;
37843;SDS011;63793;57.632;18.292;2023-05-10T13:12:09;3.42;;;2.10;;
37843;SDS011;63793;57.632;18.292;2023-05-10T13:14:36;6.28;;;2.10;;
37843;SDS011;63793;57.632;18.292;2023-05-10T13:17:03;3.08;;;2.47;;
37843;SDS011;63793;57.632;18.292;2023-05-10T13:19:30;6.63;;;2.97;;
37843;SDS011;63793;57.632;18.292;2023-05-10T13:21:57;8.10;;;2.55;;
37843;SDS011;63793;57.632;18.292;2023-05-10T13:24:24;3.45;;;2.20;;
37843;SDS011;63793;57.632;18.292;2023-05-10T13:26:51;5.75;;;2.53;;
37843;SDS011;63793;57.632;18.292;2023-05-10T13:29:18;2.67;;;2.28;;
37843;SDS011;63793;57.632;18.292;2023-05-10T13:31:45;3.00;;;1.88;;
37843;SDS011;63793;57.632;18.292;2023-05-10T13:34:12;2.20;;;1.92;;
37843;SDS011;63793;57.632;18.292;2023-05-10T13:36:39;3.92;;;1.98;;
37843;SDS011;63793;57.632;18.292;2023-05-10T13:39:06;2.75;;;1.77;;
37843;SDS011;63793;57.632;18.292;2023-05-10T13:41:33;4.72;;;2.25;;
37843;SDS011;63793;57.632;18.292;2023-05-10T13:44:00;2.17;;;1.92;;
37843;SDS011;63793;57.632;18.292;2023-05-10T13:46:27;5.18;;;2.17;;
37843;SDS011;63793;57.632;18.292;2023-05-10T13:48:55;4.07;;;2.30;;
37843;SDS011;63793;57.632;18.292;2023-05-10T13:51:23;5.25;;;2.40;;
37843;SDS011;63793;57.632;18.292;2023-05-10T13:53:49;4.57;;;2.58;;
37843;SDS011;63793;57.632;18.292;2023-05-10T13:56:16;2.75;;;1.88;;
37843;SDS011;63793;57.632;18.292;2023-05-10T13:58:43;4.60;;;2.30;;
37843;SDS011;63793;57.632;18.292;2023-05-10T14:01:10;6.38;;;2.40;;
37843;SDS011;63793;57.632;18.292;2023-05-10T14:03:38;6.38;;;1.80;;
37843;SDS011;63793;57.632;18.292;2023-05-10T14:06:05;6.38;;;2.60;;
37843;SDS011;63793;57.632;18.292;2023-05-10T14:08:34;3.35;;;2.00;;
37843;SDS011;63793;57.632;18.292;2023-05-10T14:11:02;7.32;;;2.83;;
37843;SDS011;63793;57.632;18.292;2023-05-10T14:13:29;7.95;;;3.28;;
37843;SDS011;63793;57.632;18.292;2023-05-10T14:15:56;2.38;;;2.03;;
37843;SDS011;63793;57.632;18.292;2023-05-10T14:18:23;2.78;;;2.17;;
37843;SDS011;63793;57.632;18.292;2023-05-10T14:20:49;2.83;;;2.40;;
37843;SDS011;63793;57.632;18.292;2023-05-10T14:23:16;7.70;;;2.20;;
37843;SDS011;63793;57.632;18.292;2023-05-10T14:25:45;2.75;;;2.15;;
37843;SDS011;63793;57.632;18.292;2023-05-10T14:28:12;1.92;;;1.73;;
37843;SDS011;63793;57.632;18.292;2023-05-10T14:30:39;2.33;;;1.63;;
37843;SDS011;63793;57.632;18.292;2023-05-10T14:33:06;2.33;;;2.00;;
37843;SDS011;63793;57.632;18.292;2023-05-10T14:35:34;4.40;;;1.50;;
37843;SDS011;63793;57.632;18.292;2023-05-10T14:38:04;4.47;;;2.22;;
37843;SDS011;63793;57.632;18.292;2023-05-10T14:40:31;6.85;;;2.17;;
37843;SDS011;63793;57.632;18.292;2023-05-10T14:42:57;3.63;;;1.67;;
37843;SDS011;63793;57.632;18.292;2023-05-10T14:45:24;3.90;;;2.33;;
37843;SDS011;63793;57.632;18.292;2023-05-10T14:47:52;3.72;;;2.30;;
37843;SDS011;63793;57.632;18.292;2023-05-10T14:50:19;3.47;;;1.77;;
37843;SDS011;63793;57.632;18.292;2023-05-10T14:53:01;3.63;;;1.92;;
37843;SDS011;63793;57.632;18.292;2023-05-10T14:55:28;2.42;;;2.00;;
37843;SDS011;63793;57.632;18.292;2023-05-10T14:57:56;2.95;;;2.00;;
37843;SDS011;63793;57.632;18.292;2023-05-10T15:00:24;3.10;;;2.78;;
37843;SDS011;63793;57.632;18.292;2023-05-10T15:02:51;1.52;;;1.40;;
37843;SDS011;63793;57.632;18.292;2023-05-10T15:05:19;3.78;;;2.10;;
37843;SDS011;63793;57.632;18.292;2023-05-10T15:07:46;2.95;;;2.15;;
37843;SDS011;63793;57.632;18.292;2023-05-10T15:10:14;2.75;;;2.40;;